createdAt,value
2023-05-08T00:00:36.989Z,14.40
2023-05-08T00:03:03.931Z,14.30
2023-05-08T00:05:31.046Z,14.30
2023-05-08T00:08:01.465Z,14.50
2023-05-08T00:10:29.450Z,14.30
2023-05-08T00:12:56.677Z,14.30
2023-05-08T00:15:23.385Z,14.40
2023-05-08T00:17:50.132Z,14.30
2023-05-08T00:20:16.833Z,14.20
2023-05-08T00:22:43.566Z,14.30
2023-05-08T00:25:10.722Z,14.20
2023-05-08T00:27:37.363Z,14.20
2023-05-08T00:30:04.461Z,14.20
2023-05-08T00:32:31.304Z,14.20
2023-05-08T00:34:58.054Z,14.30
2023-05-08T00:37:24.728Z,14.20
2023-05-08T00:39:51.449Z,14.20
2023-05-08T00:42:18.091Z,14.10
2023-05-08T00:44:45.686Z,14.10
2023-05-08T00:47:12.581Z,14.20
2023-05-08T00:49:39.338Z,14.10
2023-05-08T00:52:09.517Z,14.10
2023-05-08T00:54:38.140Z,14.10
2023-05-08T00:57:07.500Z,14.20
2023-05-08T00:59:35.779Z,14.10
2023-05-08T01:02:03.547Z,14.10
2023-05-08T01:04:31.853Z,14.10
2023-05-08T01:06:59.043Z,14.10
2023-05-08T01:09:27.008Z,14.10
2023-05-08T01:12:08.512Z,14.20
2023-05-08T01:15:12.270Z,14.10
2023-05-08T01:18:17.247Z,14.10
2023-05-08T01:20:52.001Z,14.10
2023-05-08T01:23:49.701Z,14.00
2023-05-08T01:26:35.467Z,14.00
2023-05-08T01:29:08.600Z,14.10
2023-05-08T01:32:10.289Z,14.00
2023-05-08T01:34:59.059Z,14.00
2023-05-08T01:37:34.793Z,14.00
2023-05-08T01:40:10.657Z,14.00
2023-05-08T01:43:17.645Z,13.90
2023-05-08T01:45:47.106Z,14.00
2023-05-08T01:48:22.767Z,13.90
2023-05-08T01:50:56.408Z,13.90
2023-05-08T01:53:28.000Z,13.90
2023-05-08T01:55:59.793Z,13.90
2023-05-08T01:58:28.279Z,13.90
2023-05-08T02:00:56.140Z,13.90
2023-05-08T02:03:24.950Z,13.90
2023-05-08T02:05:52.614Z,13.90
2023-05-08T02:08:22.469Z,13.90
2023-05-08T02:10:51.759Z,13.90
2023-05-08T02:13:21.503Z,13.90
2023-05-08T02:15:50.794Z,13.90
2023-05-08T02:18:21.804Z,13.90
2023-05-08T02:20:51.737Z,13.90
2023-05-08T02:23:20.065Z,13.90
2023-05-08T02:25:48.298Z,13.90
2023-05-08T02:28:17.637Z,13.80
2023-05-08T02:30:44.897Z,13.80
2023-05-08T02:33:13.602Z,13.80
2023-05-08T02:35:43.383Z,13.80
2023-05-08T02:38:11.994Z,13.80
2023-05-08T02:40:42.489Z,13.80
2023-05-08T02:43:09.435Z,13.80
2023-05-08T02:45:48.840Z,13.90
2023-05-08T02:48:25.416Z,13.80
2023-05-08T02:51:22.438Z,14.00
2023-05-08T02:53:59.127Z,13.80
2023-05-08T02:56:34.207Z,13.80
2023-05-08T02:59:47.052Z,13.80
2023-05-08T03:02:24.971Z,13.80
2023-05-08T03:04:56.330Z,13.80
2023-05-08T03:07:25.920Z,13.80
2023-05-08T03:10:01.670Z,13.70
2023-05-08T03:12:30.634Z,13.70
2023-05-08T03:15:07.560Z,13.70
2023-05-08T03:17:36.346Z,13.80
2023-05-08T03:20:10.279Z,13.70
2023-05-08T03:22:38.869Z,13.70
2023-05-08T03:25:09.202Z,13.70
2023-05-08T03:27:37.241Z,13.70
2023-05-08T03:30:05.444Z,13.70
2023-05-08T03:32:33.883Z,13.70
2023-05-08T03:35:02.426Z,13.50
2023-05-08T03:37:29.303Z,13.70
2023-05-08T03:39:56.348Z,13.70
2023-05-08T03:42:27.383Z,13.70
2023-05-08T03:44:54.483Z,13.60
2023-05-08T03:47:22.150Z,13.70
2023-05-08T03:49:50.416Z,13.70
2023-05-08T03:52:17.410Z,13.70
2023-05-08T03:54:44.295Z,13.70
2023-05-08T03:57:11.204Z,13.60
2023-05-08T03:59:54.568Z,13.60
2023-05-08T04:02:57.645Z,13.60
2023-05-08T04:05:39.625Z,13.60
2023-05-08T04:08:09.246Z,13.60
2023-05-08T04:10:51.047Z,13.50
2023-05-08T04:13:25.631Z,13.50
2023-05-08T04:15:55.134Z,13.50
2023-05-08T04:18:29.877Z,13.60
2023-05-08T04:20:57.938Z,13.50
2023-05-08T04:23:27.173Z,13.50
2023-05-08T04:25:55.217Z,13.50
2023-05-08T04:28:22.706Z,13.60
2023-05-08T04:30:51.076Z,13.50
2023-05-08T04:33:18.828Z,13.50
2023-05-08T04:35:46.321Z,13.60
2023-05-08T04:38:13.262Z,13.50
2023-05-08T04:40:39.963Z,13.50
2023-05-08T04:43:06.635Z,13.50
2023-05-08T04:45:33.342Z,13.50
2023-05-08T04:48:00.375Z,13.60
2023-05-08T04:50:27.217Z,13.60
2023-05-08T04:52:53.954Z,13.60
2023-05-08T04:55:20.642Z,13.60
2023-05-08T04:57:47.272Z,13.60
2023-05-08T05:00:14.504Z,13.60
2023-05-08T05:02:41.390Z,13.60
2023-05-08T05:05:08.623Z,13.60
2023-05-08T05:07:35.401Z,13.60
2023-05-08T05:10:02.347Z,13.60
2023-05-08T05:12:28.996Z,13.60
2023-05-08T05:14:55.938Z,13.80
2023-05-08T05:17:22.676Z,13.70
2023-05-08T05:19:51.474Z,13.70
2023-05-08T05:22:18.823Z,13.70
2023-05-08T05:24:45.577Z,13.60
2023-05-08T05:27:12.295Z,13.70
2023-05-08T05:29:38.996Z,13.60
2023-05-08T05:32:07.489Z,13.70
2023-05-08T05:34:34.173Z,13.70
2023-05-08T05:37:01.016Z,13.70
2023-05-08T05:39:27.663Z,13.70
2023-05-08T05:41:54.412Z,13.70
2023-05-08T05:44:21.233Z,13.70
2023-05-08T05:46:48.019Z,13.70
2023-05-08T05:49:14.810Z,13.70
2023-05-08T05:51:41.637Z,13.70
2023-05-08T05:54:08.386Z,13.70
2023-05-08T05:56:35.104Z,13.70
2023-05-08T05:59:01.913Z,13.70
2023-05-08T06:01:29.212Z,13.70
2023-05-08T06:03:56.101Z,13.80
2023-05-08T06:06:23.056Z,13.80
2023-05-08T06:08:49.880Z,13.80
2023-05-08T06:11:22.684Z,13.80
2023-05-08T06:13:52.402Z,13.80
2023-05-08T06:16:23.253Z,13.90
2023-05-08T06:18:50.100Z,13.80
2023-05-08T06:21:17.479Z,13.90
2023-05-08T06:23:47.295Z,13.80
2023-05-08T06:26:14.087Z,13.80
2023-05-08T06:28:41.202Z,13.90
2023-05-08T06:31:08.068Z,13.90
2023-05-08T06:33:35.440Z,13.90
2023-05-08T06:36:03.825Z,13.80
2023-05-08T06:38:33.414Z,14.00
2023-05-08T06:41:00.480Z,14.00
2023-05-08T06:43:27.918Z,14.00
2023-05-08T06:45:59.037Z,14.00
2023-05-08T06:48:29.299Z,14.00
2023-05-08T06:50:57.187Z,14.00
2023-05-08T06:53:25.601Z,14.00
2023-05-08T06:55:55.718Z,14.00
2023-05-08T06:58:25.217Z,14.10
2023-05-08T07:00:54.018Z,14.10
2023-05-08T07:03:21.239Z,14.10
2023-05-08T07:05:48.017Z,14.10
2023-05-08T07:08:14.898Z,14.20
2023-05-08T07:10:41.637Z,14.20
2023-05-08T07:13:09.494Z,14.10
2023-05-08T07:15:36.800Z,14.10
2023-05-08T07:18:04.222Z,14.20
2023-05-08T07:20:31.501Z,14.00
2023-05-08T07:22:58.317Z,14.00
2023-05-08T07:25:27.827Z,13.90
2023-05-08T07:27:54.950Z,14.00
2023-05-08T07:30:22.071Z,14.00
2023-05-08T07:32:52.146Z,14.00
2023-05-08T07:35:19.914Z,14.00
2023-05-08T07:37:47.420Z,14.00
2023-05-08T07:40:16.858Z,14.00
2023-05-08T07:42:44.873Z,14.00
2023-05-08T07:45:13.653Z,14.10
2023-05-08T07:47:52.819Z,14.10
2023-05-08T07:50:20.519Z,14.10
2023-05-08T07:52:50.685Z,14.10
2023-05-08T07:55:18.570Z,14.10
2023-05-08T07:57:45.577Z,14.10
2023-05-08T08:00:15.034Z,14.20
2023-05-08T08:02:43.394Z,14.20
2023-05-08T08:05:11.304Z,14.20
2023-05-08T08:07:39.326Z,14.30
2023-05-08T08:10:19.509Z,14.30
2023-05-08T08:12:52.374Z,14.30
2023-05-08T08:15:22.182Z,14.30
2023-05-08T08:17:49.730Z,14.30
2023-05-08T08:20:19.492Z,14.20
2023-05-08T08:22:46.624Z,14.30
2023-05-08T08:25:16.813Z,14.40
2023-05-08T08:27:43.832Z,14.50
2023-05-08T08:30:17.721Z,14.40
2023-05-08T08:32:46.370Z,14.40
2023-05-08T08:35:17.010Z,14.40
2023-05-08T08:37:47.016Z,14.40
2023-05-08T08:40:13.834Z,14.40
2023-05-08T08:42:41.151Z,14.30
2023-05-08T08:45:08.599Z,14.40
2023-05-08T08:47:41.922Z,14.30
2023-05-08T08:50:12.032Z,14.30
2023-05-08T08:52:43.498Z,14.30
2023-05-08T08:55:15.587Z,14.30
2023-05-08T08:58:06.171Z,14.30
2023-05-08T09:00:40.267Z,14.30
2023-05-08T09:03:10.060Z,14.30
2023-05-08T09:05:39.647Z,14.30
2023-05-08T09:08:10.475Z,14.10
2023-05-08T09:10:37.543Z,14.20
2023-05-08T09:13:05.228Z,14.30
2023-05-08T09:15:33.713Z,14.30
2023-05-08T09:18:03.477Z,14.30
2023-05-08T09:20:31.110Z,14.30
2023-05-08T09:23:01.164Z,14.40
2023-05-08T09:25:50.347Z,14.30
2023-05-08T09:28:27.052Z,14.40
2023-05-08T09:30:59.281Z,14.40
2023-05-08T09:33:29.366Z,14.30
2023-05-08T09:35:56.933Z,14.30
2023-05-08T09:38:36.168Z,14.40
2023-05-08T09:41:09.961Z,14.40
2023-05-08T09:43:38.271Z,14.40
2023-05-08T09:46:24.809Z,14.40
2023-05-08T09:48:56.707Z,14.50
2023-05-08T09:51:25.281Z,14.50
2023-05-08T09:53:53.856Z,14.50
2023-05-08T09:56:37.614Z,14.60
2023-05-08T09:59:07.010Z,14.50
2023-05-08T10:01:36.157Z,14.60
2023-05-08T10:04:10.867Z,14.60
2023-05-08T10:06:37.963Z,14.60
2023-05-08T10:09:15.821Z,14.60
2023-05-08T10:11:52.235Z,14.60
2023-05-08T10:14:20.185Z,14.70
2023-05-08T10:16:56.435Z,14.70
2023-05-08T10:19:29.253Z,14.70
2023-05-08T10:22:02.290Z,14.70
2023-05-08T10:24:37.129Z,14.80
2023-05-08T10:27:13.855Z,14.80
2023-05-08T10:29:51.088Z,14.80
2023-05-08T10:32:29.326Z,14.80
2023-05-08T10:35:04.077Z,14.90
2023-05-08T10:37:31.418Z,14.90
2023-05-08T10:39:58.829Z,14.90
2023-05-08T10:42:30.566Z,14.90
2023-05-08T10:44:58.093Z,15.00
2023-05-08T10:47:48.236Z,15.00
2023-05-08T10:50:18.809Z,15.00
2023-05-08T10:52:59.001Z,15.00
2023-05-08T10:55:34.161Z,15.00
2023-05-08T10:58:11.902Z,15.00
2023-05-08T11:01:00.568Z,15.00
2023-05-08T11:03:32.723Z,15.00
2023-05-08T11:06:02.120Z,15.00
2023-05-08T11:08:33.084Z,15.00
2023-05-08T11:11:06.256Z,15.00
2023-05-08T11:13:59.619Z,15.00
2023-05-08T11:16:57.272Z,15.10
2023-05-08T11:19:25.450Z,15.10
2023-05-08T11:22:11.070Z,15.10
2023-05-08T11:24:39.780Z,15.20
2023-05-08T11:27:09.208Z,15.20
2023-05-08T11:29:39.226Z,15.20
2023-05-08T11:32:07.032Z,15.30
2023-05-08T11:34:47.332Z,15.30
2023-05-08T11:37:19.898Z,15.30
2023-05-08T11:39:49.482Z,15.30
2023-05-08T11:42:25.841Z,15.30
2023-05-08T11:45:19.928Z,15.40
2023-05-08T11:47:46.754Z,15.50
2023-05-08T11:50:14.909Z,15.60
2023-05-08T11:52:45.814Z,15.50
2023-05-08T11:55:16.304Z,15.60
2023-05-08T11:57:44.516Z,15.50
2023-05-08T12:00:13.458Z,15.60
2023-05-08T12:02:42.485Z,15.60
2023-05-08T12:05:11.361Z,15.60
2023-05-08T12:07:48.954Z,15.60
2023-05-08T12:10:21.807Z,15.70
2023-05-08T12:12:54.286Z,15.70
2023-05-08T12:15:21.155Z,15.80
2023-05-08T12:17:48.654Z,15.70
2023-05-08T12:20:20.453Z,15.80
2023-05-08T12:22:52.371Z,15.90
2023-05-08T12:25:20.131Z,16.00
2023-05-08T12:27:48.399Z,16.00
2023-05-08T12:30:16.809Z,16.20
2023-05-08T12:32:44.537Z,16.10
2023-05-08T12:35:12.737Z,16.30
2023-05-08T12:37:40.458Z,16.50
2023-05-08T12:40:08.638Z,16.50
2023-05-08T12:42:46.520Z,16.60
2023-05-08T12:45:20.985Z,16.70
2023-05-08T12:47:53.125Z,16.80
2023-05-08T12:50:22.665Z,16.90
2023-05-08T12:52:51.615Z,16.90
2023-05-08T12:55:27.577Z,17.00
2023-05-08T12:58:15.683Z,17.00
2023-05-08T13:00:45.115Z,16.90
2023-05-08T13:03:14.365Z,16.90
2023-05-08T13:05:43.627Z,16.80
2023-05-08T13:08:11.576Z,16.70
2023-05-08T13:10:51.084Z,16.70
2023-05-08T13:13:21.138Z,16.60
2023-05-08T13:15:52.568Z,16.60
2023-05-08T13:18:20.562Z,16.60
2023-05-08T13:20:47.670Z,16.70
2023-05-08T13:23:14.396Z,16.80
2023-05-08T13:25:42.021Z,16.90
2023-05-08T13:28:10.223Z,16.90
2023-05-08T13:30:37.797Z,16.80
2023-05-08T13:33:05.519Z,16.70
2023-05-08T13:35:33.345Z,16.70
2023-05-08T13:38:00.638Z,16.60
2023-05-08T13:40:28.035Z,16.80
2023-05-08T13:42:54.758Z,16.80
2023-05-08T13:45:27.722Z,16.90
2023-05-08T13:47:54.614Z,16.90
2023-05-08T13:50:22.301Z,16.90
2023-05-08T13:52:50.504Z,17.00
2023-05-08T13:55:21.247Z,17.10
2023-05-08T13:57:48.676Z,17.10
2023-05-08T14:00:15.891Z,17.10
2023-05-08T14:02:43.044Z,17.40
2023-05-08T14:05:10.444Z,17.40
2023-05-08T14:07:37.221Z,17.50
2023-05-08T14:10:04.607Z,17.40
2023-05-08T14:12:35.995Z,17.30
2023-05-08T14:15:06.355Z,17.40
2023-05-08T14:17:33.387Z,17.40
2023-05-08T14:20:00.607Z,17.40
2023-05-08T14:22:27.709Z,17.50
2023-05-08T14:24:54.923Z,17.40
2023-05-08T14:27:22.506Z,17.30
2023-05-08T14:29:49.702Z,17.30
2023-05-08T14:32:16.433Z,17.30
2023-05-08T14:34:43.326Z,17.30
2023-05-08T14:37:10.277Z,17.30
2023-05-08T14:39:37.011Z,17.30
2023-05-08T14:44:34.055Z,17.30
2023-05-08T14:47:01.155Z,17.30
2023-05-08T14:52:15.637Z,17.30
2023-05-08T14:54:42.835Z,17.20
2023-05-08T14:57:09.899Z,17.20
2023-05-08T14:59:37.096Z,17.20
2023-05-08T15:02:05.607Z,17.20
2023-05-08T15:04:32.827Z,17.20
2023-05-08T15:07:02.465Z,17.10
2023-05-08T15:09:30.679Z,17.10
2023-05-08T15:11:57.914Z,17.10
2023-05-08T15:14:27.768Z,17.10
2023-05-08T15:16:54.624Z,17.10
2023-05-08T15:19:21.433Z,17.10
2023-05-08T15:21:48.438Z,16.90
2023-05-08T15:24:15.310Z,17.00
2023-05-08T15:26:42.223Z,17.00
2023-05-08T15:29:09.315Z,17.00
2023-05-08T15:31:36.443Z,17.10
2023-05-08T15:34:03.464Z,17.10
2023-05-08T15:36:31.538Z,17.20
2023-05-08T15:38:58.463Z,17.10
2023-05-08T15:41:25.170Z,17.10
2023-05-08T15:43:52.017Z,17.00
2023-05-08T15:46:18.993Z,17.10
2023-05-08T15:48:45.862Z,17.10
2023-05-08T15:51:12.954Z,17.10
2023-05-08T15:53:39.866Z,17.10
2023-05-08T15:56:06.897Z,17.00
2023-05-08T15:58:34.908Z,17.10
2023-05-08T16:01:02.196Z,17.00
2023-05-08T16:03:29.685Z,17.00
2023-05-08T16:05:56.850Z,16.90
2023-05-08T16:08:38.534Z,16.90
2023-05-08T16:11:08.359Z,16.90
2023-05-08T16:13:36.128Z,16.90
2023-05-08T16:16:09.107Z,16.90
2023-05-08T16:18:36.006Z,16.80
2023-05-08T16:21:09.227Z,16.80
2023-05-08T16:23:36.806Z,16.70
2023-05-08T16:26:03.756Z,16.70
2023-05-08T16:28:36.066Z,16.70
2023-05-08T16:31:05.117Z,16.70
2023-05-08T16:33:33.049Z,16.70
2023-05-08T16:36:02.120Z,16.80
2023-05-08T16:38:30.296Z,16.60
2023-05-08T16:41:09.349Z,16.60
2023-05-08T16:43:39.477Z,16.70
2023-05-08T16:46:07.688Z,16.50
2023-05-08T16:48:37.973Z,16.50
2023-05-08T16:51:05.211Z,16.50
2023-05-08T16:53:35.353Z,16.50
2023-05-08T16:56:03.047Z,16.50
2023-05-08T16:58:30.488Z,16.50
2023-05-08T17:00:57.846Z,16.50
2023-05-08T17:03:25.366Z,16.40
2023-05-08T17:05:53.316Z,16.40
2023-05-08T17:08:20.269Z,16.40
2023-05-08T17:10:48.582Z,16.40
2023-05-08T17:13:15.562Z,16.30
2023-05-08T17:15:42.744Z,16.30
2023-05-08T17:18:11.293Z,16.30
2023-05-08T17:23:24.254Z,16.40
2023-05-08T17:26:00.818Z,16.30
2023-05-08T17:28:28.199Z,16.40
2023-05-08T17:30:57.223Z,16.30
2023-05-08T17:33:24.028Z,16.30
2023-05-08T17:35:50.793Z,16.30
2023-05-08T17:38:17.465Z,16.30
2023-05-08T17:40:44.264Z,16.30
2023-05-08T17:43:14.601Z,16.30
2023-05-08T17:45:41.692Z,16.20
2023-05-08T17:48:08.570Z,16.30
2023-05-08T17:50:35.377Z,16.20
2023-05-08T17:53:02.280Z,16.20
2023-05-08T17:55:31.370Z,16.20
2023-05-08T17:57:58.342Z,16.20
2023-05-08T18:00:25.382Z,16.20
2023-05-08T18:02:52.330Z,16.10
2023-05-08T18:05:19.229Z,16.20
2023-05-08T18:07:46.293Z,16.10
2023-05-08T18:10:13.552Z,16.10
2023-05-08T18:12:40.669Z,16.30
2023-05-08T18:15:08.460Z,16.10
2023-05-08T18:17:35.704Z,16.10
2023-05-08T18:20:08.171Z,16.00
2023-05-08T18:22:35.445Z,16.00
2023-05-08T18:25:02.505Z,16.00
2023-05-08T18:27:29.435Z,16.00
2023-05-08T18:29:56.290Z,16.00
2023-05-08T18:32:23.148Z,15.90
2023-05-08T18:34:49.932Z,15.90
2023-05-08T18:37:16.932Z,16.00
2023-05-08T18:39:43.865Z,15.90
2023-05-08T18:42:10.767Z,15.90
2023-05-08T18:44:37.496Z,15.90
2023-05-08T18:47:05.361Z,15.80
2023-05-08T18:49:32.346Z,15.70
2023-05-08T18:51:59.449Z,15.80
2023-05-08T18:54:29.142Z,15.70
2023-05-08T18:56:56.035Z,15.70
2023-05-08T18:59:23.003Z,15.60
2023-05-08T19:01:51.292Z,15.70
2023-05-08T19:04:18.037Z,15.60
2023-05-08T19:06:44.939Z,15.80
2023-05-08T19:09:11.829Z,15.60
2023-05-08T19:11:41.703Z,15.60
2023-05-08T19:14:08.691Z,15.50
2023-05-08T19:16:35.529Z,15.50
2023-05-08T19:19:02.578Z,15.40
2023-05-08T19:21:29.633Z,15.40
2023-05-08T19:23:56.376Z,15.40
2023-05-08T19:26:23.373Z,15.30
2023-05-08T19:28:50.093Z,15.30
2023-05-08T19:31:16.989Z,15.30
2023-05-08T19:33:43.735Z,15.30
2023-05-08T19:36:10.877Z,15.30
2023-05-08T19:38:40.172Z,15.30
2023-05-08T19:41:07.921Z,15.20
2023-05-08T19:43:35.978Z,15.20
2023-05-08T19:46:02.862Z,15.10
2023-05-08T19:48:29.792Z,15.10
2023-05-08T19:50:56.942Z,15.10
2023-05-08T19:53:24.068Z,15.10
2023-05-08T19:55:50.963Z,15.10
2023-05-08T19:58:18.412Z,15.00
2023-05-08T20:00:50.993Z,15.00
2023-05-08T20:03:18.421Z,14.90
2023-05-08T20:05:45.897Z,14.90
2023-05-08T20:08:12.629Z,14.90
2023-05-08T20:10:39.357Z,14.90
2023-05-08T20:13:06.238Z,14.80
2023-05-08T20:15:33.475Z,14.80
2023-05-08T20:18:00.915Z,14.80
2023-05-08T20:20:29.533Z,14.90
2023-05-08T20:22:56.443Z,14.70
2023-05-08T20:25:23.545Z,14.60
2023-05-08T20:27:50.659Z,14.50
2023-05-08T20:30:18.012Z,14.60
2023-05-08T20:32:45.816Z,14.50
2023-05-08T20:35:14.083Z,14.50
2023-05-08T20:37:45.492Z,14.40
2023-05-08T20:40:13.451Z,14.40
2023-05-08T20:42:41.613Z,14.30
2023-05-08T20:45:09.870Z,14.30
2023-05-08T20:47:37.239Z,14.30
2023-05-08T20:50:04.978Z,14.30
2023-05-08T20:52:33.352Z,14.20
2023-05-08T20:55:01.282Z,14.20
2023-05-08T20:57:28.213Z,14.20
2023-05-08T20:59:55.333Z,14.10
2023-05-08T21:02:22.142Z,14.00
2023-05-08T21:04:49.677Z,14.00
2023-05-08T21:07:16.843Z,13.90
2023-05-08T21:09:44.134Z,13.90
2023-05-08T21:12:11.285Z,13.90
2023-05-08T21:14:38.511Z,13.90
2023-05-08T21:17:05.476Z,13.80
2023-05-08T21:19:32.539Z,13.80
2023-05-08T21:22:00.141Z,13.70
2023-05-08T21:24:27.765Z,13.70
2023-05-08T21:26:55.284Z,13.70
2023-05-08T21:29:22.173Z,13.70
2023-05-08T21:31:49.154Z,13.60
2023-05-08T21:34:16.658Z,13.60
2023-05-08T21:36:43.561Z,13.60
2023-05-08T21:39:10.345Z,13.60
2023-05-08T21:41:37.254Z,13.50
2023-05-08T21:44:04.151Z,13.50
2023-05-08T21:46:31.208Z,13.50
2023-05-08T21:48:58.039Z,13.50
2023-05-08T21:51:25.229Z,13.50
2023-05-08T21:53:54.687Z,13.50
2023-05-08T21:56:21.791Z,13.50
2023-05-08T21:58:49.603Z,13.50
2023-05-08T22:01:17.391Z,13.50
2023-05-08T22:03:44.846Z,13.50
2023-05-08T22:06:13.831Z,13.50
2023-05-08T22:08:40.799Z,13.50
2023-05-08T22:11:07.946Z,13.60
2023-05-08T22:13:35.399Z,13.60
2023-05-08T22:16:02.490Z,13.50
2023-05-08T22:18:29.902Z,13.50
2023-05-08T22:20:56.844Z,13.50
2023-05-08T22:23:23.918Z,13.50
2023-05-08T22:25:52.293Z,13.50
2023-05-08T22:28:19.518Z,13.50
2023-05-08T22:30:46.460Z,13.50
2023-05-08T22:33:13.308Z,13.60
2023-05-08T22:35:40.538Z,13.50
2023-05-08T22:38:07.522Z,13.50
2023-05-08T22:40:35.391Z,13.50
2023-05-08T22:43:02.845Z,13.50
2023-05-08T22:45:30.174Z,13.50
2023-05-08T22:47:57.906Z,13.50
2023-05-08T22:50:25.178Z,13.50
2023-05-08T22:52:55.605Z,13.50
2023-05-08T22:55:22.887Z,13.50
2023-05-08T22:57:50.404Z,13.50
2023-05-08T23:00:18.557Z,13.50
2023-05-08T23:02:45.426Z,13.50
2023-05-08T23:05:12.238Z,13.50
2023-05-08T23:07:39.418Z,13.50
2023-05-08T23:10:06.925Z,13.50
2023-05-08T23:12:33.656Z,13.50
2023-05-08T23:15:00.807Z,13.40
2023-05-08T23:17:27.581Z,13.40
2023-05-08T23:19:54.433Z,13.40
2023-05-08T23:22:21.081Z,13.20
2023-05-08T23:24:48.524Z,13.30
2023-05-08T23:27:15.223Z,13.30
2023-05-08T23:29:42.006Z,13.20
2023-05-08T23:32:08.726Z,13.20
2023-05-08T23:34:35.462Z,13.20
2023-05-08T23:37:02.232Z,13.10
2023-05-08T23:39:29.010Z,13.10
2023-05-08T23:41:56.175Z,13.10
2023-05-08T23:44:22.931Z,13.10
2023-05-08T23:46:49.645Z,13.00
2023-05-08T23:49:16.409Z,13.00
2023-05-08T23:51:43.330Z,13.00
2023-05-08T23:54:10.063Z,13.00
2023-05-08T23:56:37.012Z,13.00
2023-05-08T23:59:03.820Z,13.10
